Terminal Aerodrome Forecast
Issued by NWS Sioux Falls, SD

Home | Current Version | Previous Version | Text Only | Print | Product List | Glossary Off
Versions: 1 2 3 4 5 6 7 8 9 10 11 12 13 14 15

000
FTUS43 KFSD 161720
TAFHON
TAF
KHON 161720Z 1618/1718 32004KT P6SM SCT070
     FM162100 35006KT P6SM BKN070
     FM170400 01005KT P6SM SCT070 BKN250
     FM171000 04006KT P6SM SCT035 BKN070=

USA.gov is the U.S. government's official web portal to all federal, state and local government web resources and services.